sensor_id;sensor_type;location;lat;lon;timestamp;pressure;altitude;pressure_sealevel;temperature;humidity
54816;BME280;40715;55.752;37.884;2023-10-08T00:01:29;95651.50;;;29.67;27.74
54816;BME280;40715;55.752;37.884;2023-10-08T00:04:00;95667.47;;;29.63;27.73
54816;BME280;40715;55.752;37.884;2023-10-08T00:06:30;95666.88;;;29.61;27.65
54816;BME280;40715;55.752;37.884;2023-10-08T00:08:57;95658.75;;;29.61;27.80
54816;BME280;40715;55.752;37.884;2023-10-08T00:11:28;95662.84;;;29.64;27.77
54816;BME280;40715;55.752;37.884;2023-10-08T00:13:58;95667.22;;;29.65;27.71
54816;BME280;40715;55.752;37.884;2023-10-08T00:16:27;95666.63;;;29.63;27.76
54816;BME280;40715;55.752;37.884;2023-10-08T00:18:55;95670.19;;;29.63;27.71
54816;BME280;40715;55.752;37.884;2023-10-08T00:21:29;95671.00;;;29.64;27.63
54816;BME280;40715;55.752;37.884;2023-10-08T00:23:59;95664.97;;;29.61;27.63
54816;BME280;40715;55.752;37.884;2023-10-08T00:26:28;95651.69;;;29.60;27.53
54816;BME280;40715;55.752;37.884;2023-10-08T00:29:00;95667.69;;;29.61;27.90
54816;BME280;40715;55.752;37.884;2023-10-08T00:31:28;95649.81;;;29.60;27.50
54816;BME280;40715;55.752;37.884;2023-10-08T00:33:58;95650.56;;;29.56;27.69
54816;BME280;40715;55.752;37.884;2023-10-08T00:36:25;95664.19;;;29.61;27.67
54816;BME280;40715;55.752;37.884;2023-10-08T00:38:52;95665.19;;;29.55;27.93
54816;BME280;40715;55.752;37.884;2023-10-08T00:41:25;95664.44;;;29.59;27.70
54816;BME280;40715;55.752;37.884;2023-10-08T00:43:55;95676.09;;;29.60;27.71
54816;BME280;40715;55.752;37.884;2023-10-08T00:46:27;95672.81;;;29.58;27.56
54816;BME280;40715;55.752;37.884;2023-10-08T00:49:00;95670.09;;;29.58;27.67
54816;BME280;40715;55.752;37.884;2023-10-08T00:51:47;95651.13;;;29.58;27.65
54816;BME280;40715;55.752;37.884;2023-10-08T00:54:15;95654.66;;;29.58;27.74
54816;BME280;40715;55.752;37.884;2023-10-08T00:56:46;95656.53;;;29.58;27.86
54816;BME280;40715;55.752;37.884;2023-10-08T00:59:20;95657.88;;;29.55;27.81
54816;BME280;40715;55.752;37.884;2023-10-08T01:01:51;95653.50;;;29.54;27.87
54816;BME280;40715;55.752;37.884;2023-10-08T01:04:19;95651.06;;;29.53;27.62
54816;BME280;40715;55.752;37.884;2023-10-08T01:06:52;95646.72;;;29.52;27.60
54816;BME280;40715;55.752;37.884;2023-10-08T01:09:26;95656.81;;;29.56;27.80
54816;BME280;40715;55.752;37.884;2023-10-08T01:14:48;95653.03;;;29.57;27.56
54816;BME280;40715;55.752;37.884;2023-10-08T01:17:16;95667.91;;;29.55;27.79
54816;BME280;40715;55.752;37.884;2023-10-08T01:19:46;95646.47;;;29.53;27.84
54816;BME280;40715;55.752;37.884;2023-10-08T01:22:26;95662.22;;;29.56;27.51
54816;BME280;40715;55.752;37.884;2023-10-08T01:24:55;95654.00;;;29.51;27.56
54816;BME280;40715;55.752;37.884;2023-10-08T01:27:24;95654.28;;;29.50;27.62
54816;BME280;40715;55.752;37.884;2023-10-08T01:29:51;95654.53;;;29.48;27.83
54816;BME280;40715;55.752;37.884;2023-10-08T01:32:19;95661.00;;;29.47;27.84
54816;BME280;40715;55.752;37.884;2023-10-08T01:34:48;95652.63;;;29.49;27.74
54816;BME280;40715;55.752;37.884;2023-10-08T01:37:16;95654.78;;;29.47;27.61
54816;BME280;40715;55.752;37.884;2023-10-08T01:39:45;95634.41;;;29.44;27.72
54816;BME280;40715;55.752;37.884;2023-10-08T01:42:12;95656.09;;;29.44;27.66
54816;BME280;40715;55.752;37.884;2023-10-08T01:44:45;95647.72;;;29.46;27.26
54816;BME280;40715;55.752;37.884;2023-10-08T01:47:15;95654.44;;;29.43;27.30
54816;BME280;40715;55.752;37.884;2023-10-08T01:49:43;95669.09;;;29.42;27.34
54816;BME280;40715;55.752;37.884;2023-10-08T01:52:13;95639.53;;;29.40;27.32
54816;BME280;40715;55.752;37.884;2023-10-08T01:54:49;95648.22;;;29.42;27.51
54816;BME280;40715;55.752;37.884;2023-10-08T01:57:16;95655.78;;;29.40;27.46
54816;BME280;40715;55.752;37.884;2023-10-08T01:59:46;95658.75;;;29.39;27.71
54816;BME280;40715;55.752;37.884;2023-10-08T02:02:13;95654.16;;;29.39;27.32
54816;BME280;40715;55.752;37.884;2023-10-08T02:04:42;95655.53;;;29.42;27.34
54816;BME280;40715;55.752;37.884;2023-10-08T02:07:10;95656.84;;;29.39;27.47
54816;BME280;40715;55.752;37.884;2023-10-08T02:09:40;95656.03;;;29.39;27.66
54816;BME280;40715;55.752;37.884;2023-10-08T02:12:07;95669.09;;;29.42;27.56
54816;BME280;40715;55.752;37.884;2023-10-08T02:14:34;95670.97;;;29.41;27.66
54816;BME280;40715;55.752;37.884;2023-10-08T02:17:02;95654.44;;;29.43;27.58
54816;BME280;40715;55.752;37.884;2023-10-08T02:19:33;95658.25;;;29.42;27.66
54816;BME280;40715;55.752;37.884;2023-10-08T02:22:01;95660.13;;;29.41;27.73
54816;BME280;40715;55.752;37.884;2023-10-08T02:24:30;95663.84;;;29.35;27.72
54816;BME280;40715;55.752;37.884;2023-10-08T02:26:57;95668.25;;;29.41;27.77
54816;BME280;40715;55.752;37.884;2023-10-08T02:29:29;95672.06;;;29.40;27.73
54816;BME280;40715;55.752;37.884;2023-10-08T02:31:57;95663.09;;;29.40;27.85
54816;BME280;40715;55.752;37.884;2023-10-08T02:34:25;95667.69;;;29.39;27.57
54816;BME280;40715;55.752;37.884;2023-10-08T02:36:52;95656.31;;;29.37;27.82
54816;BME280;40715;55.752;37.884;2023-10-08T02:39:19;95660.88;;;29.37;27.98
54816;BME280;40715;55.752;37.884;2023-10-08T02:41:53;95658.69;;;29.34;27.67
54816;BME280;40715;55.752;37.884;2023-10-08T02:44:23;95665.75;;;29.35;27.93
54816;BME280;40715;55.752;37.884;2023-10-08T02:46:52;95659.50;;;29.34;28.02
54816;BME280;40715;55.752;37.884;2023-10-08T02:49:20;95671.91;;;29.30;28.03
54816;BME280;40715;55.752;37.884;2023-10-08T02:51:54;95669.78;;;29.32;27.93
54816;BME280;40715;55.752;37.884;2023-10-08T02:54:22;95670.03;;;29.31;28.03
54816;BME280;40715;55.752;37.884;2023-10-08T02:56:59;95660.56;;;29.33;28.18
54816;BME280;40715;55.752;37.884;2023-10-08T02:59:33;95664.84;;;29.29;28.09
54816;BME280;40715;55.752;37.884;2023-10-08T03:02:08;95674.69;;;29.35;27.90
54816;BME280;40715;55.752;37.884;2023-10-08T03:04:53;95650.16;;;29.91;27.34
54816;BME280;40715;55.752;37.884;2023-10-08T03:07:20;95659.88;;;29.43;27.72
54816;BME280;40715;55.752;37.884;2023-10-08T03:09:52;95668.06;;;29.26;28.06
54816;BME280;40715;55.752;37.884;2023-10-08T03:12:33;95659.09;;;29.25;28.07
54816;BME280;40715;55.752;37.884;2023-10-08T03:15:03;95658.19;;;29.20;27.87
54816;BME280;40715;55.752;37.884;2023-10-08T03:17:54;95661.25;;;29.23;28.34
54816;BME280;40715;55.752;37.884;2023-10-08T03:20:24;95659.81;;;29.21;28.00
54816;BME280;40715;55.752;37.884;2023-10-08T03:23:12;95671.72;;;29.20;28.00
54816;BME280;40715;55.752;37.884;2023-10-08T03:25:40;95665.25;;;29.21;28.11
54816;BME280;40715;55.752;37.884;2023-10-08T03:28:12;95671.72;;;29.20;28.13
54816;BME280;40715;55.752;37.884;2023-10-08T03:30:40;95663.34;;;29.21;28.35
54816;BME280;40715;55.752;37.884;2023-10-08T03:33:17;95667.97;;;29.21;28.13
54816;BME280;40715;55.752;37.884;2023-10-08T03:35:51;95662.28;;;29.22;28.24
54816;BME280;40715;55.752;37.884;2023-10-08T03:38:22;95663.34;;;29.21;28.17
54816;BME280;40715;55.752;37.884;2023-10-08T03:40:55;95657.72;;;29.23;28.21
54816;BME280;40715;55.752;37.884;2023-10-08T03:43:30;95664.78;;;29.24;28.08
54816;BME280;40715;55.752;37.884;2023-10-08T03:46:17;95658.53;;;29.23;28.12
54816;BME280;40715;55.752;37.884;2023-10-08T03:48:44;95666.56;;;29.18;28.38
54816;BME280;40715;55.752;37.884;2023-10-08T03:51:12;95655.16;;;29.16;28.19
54816;BME280;40715;55.752;37.884;2023-10-08T03:53:39;95650.56;;;29.17;28.34
54816;BME280;40715;55.752;37.884;2023-10-08T03:56:27;95659.50;;;29.17;28.32
54816;BME280;40715;55.752;37.884;2023-10-08T03:58:58;95660.34;;;29.18;28.26
54816;BME280;40715;55.752;37.884;2023-10-08T04:01:42;95660.59;;;29.16;28.36
54816;BME280;40715;55.752;37.884;2023-10-08T04:04:10;95650.56;;;29.17;28.22
54816;BME280;40715;55.752;37.884;2023-10-08T04:06:42;95654.91;;;29.18;28.33
54816;BME280;40715;55.752;37.884;2023-10-08T04:09:16;95645.94;;;29.17;28.21
54816;BME280;40715;55.752;37.884;2023-10-08T04:11:51;95633.91;;;29.08;28.33
54816;BME280;40715;55.752;37.884;2023-10-08T04:14:22;95647.53;;;29.13;28.41
54816;BME280;40715;55.752;37.884;2023-10-08T04:16:51;95646.19;;;29.16;28.22
54816;BME280;40715;55.752;37.884;2023-10-08T04:19:22;95655.66;;;29.13;28.56
54816;BME280;40715;55.752;37.884;2023-10-08T04:21:54;95629.94;;;29.16;28.48
54816;BME280;40715;55.752;37.884;2023-10-08T04:24:26;95634.53;;;29.15;28.42
54816;BME280;40715;55.752;37.884;2023-10-08T04:27:02;95649.75;;;29.16;28.45
54816;BME280;40715;55.752;37.884;2023-10-08T04:29:32;95641.63;;;29.16;28.43
54816;BME280;40715;55.752;37.884;2023-10-08T04:32:04;95640.78;;;29.16;28.46
54816;BME280;40715;55.752;37.884;2023-10-08T04:34:35;95648.09;;;29.15;28.34
54816;BME280;40715;55.752;37.884;2023-10-08T04:37:02;95649.16;;;29.14;28.53
54816;BME280;40715;55.752;37.884;2023-10-08T04:39:40;95650.00;;;29.15;28.21
54816;BME280;40715;55.752;37.884;2023-10-08T04:42:13;95638.91;;;29.16;28.48
54816;BME280;40715;55.752;37.884;2023-10-08T04:44:41;95648.09;;;29.15;28.50
54816;BME280;40715;55.752;37.884;2023-10-08T04:47:09;95661.09;;;29.13;28.54
54816;BME280;40715;55.752;37.884;2023-10-08T04:49:38;95666.25;;;29.15;28.53
54816;BME280;40715;55.752;37.884;2023-10-08T04:52:12;95655.97;;;29.17;28.47
54816;BME280;40715;55.752;37.884;2023-10-08T04:54:42;95648.09;;;29.15;28.47
54816;BME280;40715;55.752;37.884;2023-10-08T04:57:19;95660.88;;;29.20;28.50
54816;BME280;40715;55.752;37.884;2023-10-08T04:59:50;95656.47;;;29.14;28.55
54816;BME280;40715;55.752;37.884;2023-10-08T05:02:17;95676.84;;;29.16;28.53
54816;BME280;40715;55.752;37.884;2023-10-08T05:05:05;95688.50;;;29.17;28.56
54816;BME280;40715;55.752;37.884;2023-10-08T05:07:38;95665.75;;;29.18;28.36
54816;BME280;40715;55.752;37.884;2023-10-08T05:10:15;95676.00;;;29.16;28.26
54816;BME280;40715;55.752;37.884;2023-10-08T05:12:44;95679.31;;;29.18;28.29
54816;BME280;40715;55.752;37.884;2023-10-08T05:15:28;95688.00;;;29.20;28.24
54816;BME280;40715;55.752;37.884;2023-10-08T05:18:08;95674.69;;;29.18;28.29
54816;BME280;40715;55.752;37.884;2023-10-08T05:20:41;95683.06;;;29.17;28.43
54816;BME280;40715;55.752;37.884;2023-10-08T05:23:18;95692.34;;;29.21;28.17
54816;BME280;40715;55.752;37.884;2023-10-08T05:25:52;95695.56;;;29.18;28.32
54816;BME280;40715;55.752;37.884;2023-10-08T05:28:33;95685.78;;;29.17;28.34
54816;BME280;40715;55.752;37.884;2023-10-08T05:31:14;95690.41;;;29.16;28.16
54816;BME280;40715;55.752;37.884;2023-10-08T05:33:44;95699.59;;;29.15;28.56
54816;BME280;40715;55.752;37.884;2023-10-08T05:36:41;95708.88;;;29.19;28.11
54816;BME280;40715;55.752;37.884;2023-10-08T05:39:38;95723.22;;;29.20;27.51
54816;BME280;40715;55.752;37.884;2023-10-08T05:42:05;95709.38;;;29.16;27.03
54816;BME280;40715;55.752;37.884;2023-10-08T05:44:52;95708.03;;;29.75;26.86
54816;BME280;40715;55.752;37.884;2023-10-08T05:47:37;95716.75;;;29.21;26.61
54816;BME280;40715;55.752;37.884;2023-10-08T05:50:05;95708.97;;;29.07;26.64
54816;BME280;40715;55.752;37.884;2023-10-08T05:52:46;95681.03;;;29.07;26.86
54816;BME280;40715;55.752;37.884;2023-10-08T05:55:21;95718.41;;;29.05;26.71
54816;BME280;40715;55.752;37.884;2023-10-08T05:57:59;95704.84;;;29.05;26.38
54816;BME280;40715;55.752;37.884;2023-10-08T06:00:47;95684.81;;;29.06;26.51
54816;BME280;40715;55.752;37.884;2023-10-08T06:03:17;95709.69;;;29.03;25.99
54816;BME280;40715;55.752;37.884;2023-10-08T06:06:06;95707.81;;;29.03;26.25
54816;BME280;40715;55.752;37.884;2023-10-08T06:08:37;95714.28;;;29.02;26.21
54816;BME280;40715;55.752;37.884;2023-10-08T06:11:33;95692.63;;;29.02;26.10
54816;BME280;40715;55.752;37.884;2023-10-08T06:14:08;95704.03;;;29.04;26.18
54816;BME280;40715;55.752;37.884;2023-10-08T06:16:44;95696.22;;;29.08;25.95
54816;BME280;40715;55.752;37.884;2023-10-08T06:19:11;95724.63;;;29.05;25.79
54816;BME280;40715;55.752;37.884;2023-10-08T06:21:40;95696.97;;;29.03;25.93
54816;BME280;40715;55.752;37.884;2023-10-08T06:24:09;95735.47;;;29.05;25.89
54816;BME280;40715;55.752;37.884;2023-10-08T06:26:37;95702.97;;;29.05;25.75
54816;BME280;40715;55.752;37.884;2023-10-08T06:29:15;95712.50;;;29.08;25.45
54816;BME280;40715;55.752;37.884;2023-10-08T06:31:46;95746.06;;;29.07;25.49
54816;BME280;40715;55.752;37.884;2023-10-08T06:34:18;95721.94;;;29.05;25.18
54816;BME280;40715;55.752;37.884;2023-10-08T06:36:49;95732.50;;;29.07;25.13
54816;BME280;40715;55.752;37.884;2023-10-08T06:39:23;95706.81;;;29.09;24.90
54816;BME280;40715;55.752;37.884;2023-10-08T06:42:00;95724.72;;;29.10;24.58
54816;BME280;40715;55.752;37.884;2023-10-08T06:44:27;95728.25;;;29.11;24.67
54816;BME280;40715;55.752;37.884;2023-10-08T06:46:54;95724.47;;;29.12;24.50
54816;BME280;40715;55.752;37.884;2023-10-08T06:49:22;95731.75;;;29.12;24.46
54816;BME280;40715;55.752;37.884;2023-10-08T06:51:51;95707.38;;;29.12;24.30
54816;BME280;40715;55.752;37.884;2023-10-08T06:54:18;95731.75;;;29.12;24.60
54816;BME280;40715;55.752;37.884;2023-10-08T06:56:46;95775.72;;;29.14;24.61
54816;BME280;40715;55.752;37.884;2023-10-08T06:59:40;95731.34;;;29.20;24.35
54816;BME280;40715;55.752;37.884;2023-10-08T07:02:09;95746.47;;;29.16;24.38
54816;BME280;40715;55.752;37.884;2023-10-08T07:04:37;95736.13;;;29.13;23.94
54816;BME280;40715;55.752;37.884;2023-10-08T07:07:06;95741.88;;;29.16;24.18
54816;BME280;40715;55.752;37.884;2023-10-08T07:09:36;95730.81;;;29.18;24.02
54816;BME280;40715;55.752;37.884;2023-10-08T07:12:03;95738.94;;;29.18;23.60
54816;BME280;40715;55.752;37.884;2023-10-08T07:14:33;95744.91;;;29.20;23.51
54816;BME280;40715;55.752;37.884;2023-10-08T07:17:00;95717.25;;;29.18;23.74
54816;BME280;40715;55.752;37.884;2023-10-08T07:19:29;95725.63;;;29.16;23.55
54816;BME280;40715;55.752;37.884;2023-10-08T07:22:05;95734.31;;;29.18;23.79
54816;BME280;40715;55.752;37.884;2023-10-08T07:24:55;95746.56;;;29.21;23.92
54816;BME280;40715;55.752;37.884;2023-10-08T07:27:25;95732.91;;;29.16;24.27
54816;BME280;40715;55.752;37.884;2023-10-08T07:29:58;95747.38;;;29.21;24.24
54816;BME280;40715;55.752;37.884;2023-10-08T07:32:32;95747.63;;;29.20;24.21
54816;BME280;40715;55.752;37.884;2023-10-08T07:35:01;95742.56;;;29.23;24.35
54816;BME280;40715;55.752;37.884;2023-10-08T07:37:53;95742.31;;;29.25;24.63
54816;BME280;40715;55.752;37.884;2023-10-08T07:40:21;95749.59;;;29.24;24.64
54816;BME280;40715;55.752;37.884;2023-10-08T07:42:54;95751.25;;;29.25;24.86
54816;BME280;40715;55.752;37.884;2023-10-08T07:45:21;95743.38;;;29.24;25.03
54816;BME280;40715;55.752;37.884;2023-10-08T07:47:48;95730.41;;;29.26;25.01
54816;BME280;40715;55.752;37.884;2023-10-08T07:50:15;95744.88;;;29.32;25.30
54816;BME280;40715;55.752;37.884;2023-10-08T07:52:43;95760.38;;;29.36;25.58
54816;BME280;40715;55.752;37.884;2023-10-08T07:55:11;95749.34;;;29.43;25.62
54816;BME280;40715;55.752;37.884;2023-10-08T07:57:45;95756.50;;;29.49;25.79
54816;BME280;40715;55.752;37.884;2023-10-08T08:00:12;95738.66;;;29.53;25.76
54816;BME280;40715;55.752;37.884;2023-10-08T08:02:49;95745.53;;;29.61;25.35
54816;BME280;40715;55.752;37.884;2023-10-08T08:05:16;95758.94;;;29.68;25.84
54816;BME280;40715;55.752;37.884;2023-10-08T08:07:44;95760.88;;;29.72;25.63
54816;BME280;40715;55.752;37.884;2023-10-08T08:10:16;95766.94;;;29.79;25.38
54816;BME280;40715;55.752;37.884;2023-10-08T08:12:44;95753.22;;;29.86;25.51
54816;BME280;40715;55.752;37.884;2023-10-08T08:15:12;95762.81;;;29.94;25.64
54816;BME280;40715;55.752;37.884;2023-10-08T08:17:43;95772.94;;;29.99;25.43
54816;BME280;40715;55.752;37.884;2023-10-08T08:20:11;95771.31;;;30.03;25.27
54816;BME280;40715;55.752;37.884;2023-10-08T08:22:44;95771.91;;;30.05;25.20
54816;BME280;40715;55.752;37.884;2023-10-08T08:25:17;95770.59;;;30.07;25.23
54816;BME280;40715;55.752;37.884;2023-10-08T08:27:53;95780.44;;;30.13;25.25
54816;BME280;40715;55.752;37.884;2023-10-08T08:30:20;95782.34;;;30.13;25.49
54816;BME280;40715;55.752;37.884;2023-10-08T08:32:53;95773.25;;;30.24;25.15
54816;BME280;40715;55.752;37.884;2023-10-08T08:35:23;95787.91;;;30.28;25.16
54816;BME280;40715;55.752;37.884;2023-10-08T08:37:50;95784.50;;;30.38;24.91
54816;BME280;40715;55.752;37.884;2023-10-08T08:40:20;95786.50;;;30.43;25.02
54816;BME280;40715;55.752;37.884;2023-10-08T08:42:51;95790.66;;;30.51;24.76
54816;BME280;40715;55.752;37.884;2023-10-08T08:45:25;95780.66;;;30.56;24.68
54816;BME280;40715;55.752;37.884;2023-10-08T08:47:53;95789.06;;;30.55;24.50
54816;BME280;40715;55.752;37.884;2023-10-08T08:50:22;95779.84;;;30.56;24.64
54816;BME280;40715;55.752;37.884;2023-10-08T08:52:50;95810.81;;;30.55;24.48
54816;BME280;40715;55.752;37.884;2023-10-08T08:55:18;95793.44;;;30.56;24.76
54816;BME280;40715;55.752;37.884;2023-10-08T08:57:49;95807.81;;;30.56;24.18
54816;BME280;40715;55.752;37.884;2023-10-08T09:00:19;95807.81;;;30.56;23.78
54816;BME280;40715;55.752;37.884;2023-10-08T09:02:47;95812.19;;;30.57;23.63
54816;BME280;40715;55.752;37.884;2023-10-08T09:05:16;95790.75;;;30.61;23.49
54816;BME280;40715;55.752;37.884;2023-10-08T09:08:00;95793.28;;;30.68;23.43
54816;BME280;40715;55.752;37.884;2023-10-08T09:10:33;95798.97;;;30.66;23.14
54816;BME280;40715;55.752;37.884;2023-10-08T09:13:06;95809.00;;;30.66;23.11
54816;BME280;40715;55.752;37.884;2023-10-08T09:15:36;95816.06;;;30.67;22.99
54816;BME280;40715;55.752;37.884;2023-10-08T09:18:06;95808.19;;;30.65;22.97
54816;BME280;40715;55.752;37.884;2023-10-08T09:20:37;95803.81;;;30.64;23.09
54816;BME280;40715;55.752;37.884;2023-10-08T09:23:12;95830.72;;;30.66;22.96
54816;BME280;40715;55.752;37.884;2023-10-08T09:25:41;95812.81;;;30.64;23.15
54816;BME280;40715;55.752;37.884;2023-10-08T09:28:09;95805.47;;;30.65;23.42
54816;BME280;40715;55.752;37.884;2023-10-08T09:30:40;95811.72;;;30.66;23.51
54816;BME280;40715;55.752;37.884;2023-10-08T09:33:09;95815.28;;;30.66;23.43
54816;BME280;40715;55.752;37.884;2023-10-08T09:35:37;95832.97;;;30.69;23.71
54816;BME280;40715;55.752;37.884;2023-10-08T09:38:05;95839.47;;;30.68;23.43
54816;BME280;40715;55.752;37.884;2023-10-08T09:40:36;95815.00;;;30.68;23.43
54816;BME280;40715;55.752;37.884;2023-10-08T09:43:04;95839.72;;;30.66;23.55
54816;BME280;40715;55.752;37.884;2023-10-08T09:45:32;95827.28;;;30.70;23.39
54816;BME280;40715;55.752;37.884;2023-10-08T09:48:01;95833.44;;;30.66;23.37
54816;BME280;40715;55.752;37.884;2023-10-08T09:50:35;95829.41;;;30.68;23.40
54816;BME280;40715;55.752;37.884;2023-10-08T09:53:11;95821.00;;;30.70;23.55
54816;BME280;40715;55.752;37.884;2023-10-08T09:55:57;95825.63;;;30.69;23.48
54816;BME280;40715;55.752;37.884;2023-10-08T09:58:28;95824.81;;;30.69;23.56
54816;BME280;40715;55.752;37.884;2023-10-08T10:00:57;95837.56;;;30.68;23.67
54816;BME280;40715;55.752;37.884;2023-10-08T10:03:25;95850.06;;;30.69;23.80
54816;BME280;40715;55.752;37.884;2023-10-08T10:05:53;95840.84;;;30.70;23.94
54816;BME280;40715;55.752;37.884;2023-10-08T10:08:27;95845.44;;;30.70;23.73
54816;BME280;40715;55.752;37.884;2023-10-08T10:11:03;95841.66;;;30.71;23.73
54816;BME280;40715;55.752;37.884;2023-10-08T10:13:44;95850.44;;;30.78;23.96
54816;BME280;40715;55.752;37.884;2023-10-08T10:16:11;95852.59;;;30.76;23.87
54816;BME280;40715;55.752;37.884;2023-10-08T10:18:44;95832.44;;;30.72;23.89
54816;BME280;40715;55.752;37.884;2023-10-08T10:23:46;95845.19;;;30.71;23.50
54816;BME280;40715;55.752;37.884;2023-10-08T10:26:32;95849.38;;;30.79;23.59
54816;BME280;40715;55.752;37.884;2023-10-08T10:31:34;95850.41;;;30.73;23.75
54816;BME280;40715;55.752;37.884;2023-10-08T10:34:06;95839.53;;;30.73;23.79
54816;BME280;40715;55.752;37.884;2023-10-08T10:36:38;95852.84;;;30.74;23.87
54816;BME280;40715;55.752;37.884;2023-10-08T10:39:06;95854.47;;;30.75;23.59
54816;BME280;40715;55.752;37.884;2023-10-08T10:42:06;95850.94;;;30.75;23.81
54816;BME280;40715;55.752;37.884;2023-10-08T10:44:34;95869.97;;;30.75;23.59
54816;BME280;40715;55.752;37.884;2023-10-08T10:47:05;95857.19;;;30.75;23.78
54816;BME280;40715;55.752;37.884;2023-10-08T10:49:46;95861.25;;;30.73;23.75
54816;BME280;40715;55.752;37.884;2023-10-08T10:52:25;95866.44;;;30.74;24.11
54816;BME280;40715;55.752;37.884;2023-10-08T10:55:01;95871.28;;;30.72;23.91
54816;BME280;40715;55.752;37.884;2023-10-08T10:57:56;95876.03;;;30.82;23.63
54816;BME280;40715;55.752;37.884;2023-10-08T11:00:25;95864.16;;;30.66;23.69
54816;BME280;40715;55.752;37.884;2023-10-08T11:03:03;95882.41;;;30.71;23.65
54816;BME280;40715;55.752;37.884;2023-10-08T11:05:35;95878.03;;;30.70;24.14
54816;BME280;40715;55.752;37.884;2023-10-08T11:08:06;95883.72;;;30.68;23.68
54816;BME280;40715;55.752;37.884;2023-10-08T11:10:37;95882.13;;;30.67;24.12
54816;BME280;40715;55.752;37.884;2023-10-08T11:13:08;95883.19;;;30.66;24.06
54816;BME280;40715;55.752;37.884;2023-10-08T11:15:46;95882.94;;;30.68;23.94
54816;BME280;40715;55.752;37.884;2023-10-08T11:18:18;95893.22;;;30.66;23.63
54816;BME280;40715;55.752;37.884;2023-10-08T11:20:47;95893.47;;;30.64;24.05
54816;BME280;40715;55.752;37.884;2023-10-08T11:23:31;95882.41;;;30.71;23.91
54816;BME280;40715;55.752;37.884;2023-10-08T11:26:01;95892.97;;;30.67;23.66
54816;BME280;40715;55.752;37.884;2023-10-08T11:31:12;95901.34;;;30.66;23.84
54816;BME280;40715;55.752;37.884;2023-10-08T11:33:42;95889.94;;;30.63;23.81
54816;BME280;40715;55.752;37.884;2023-10-08T11:36:10;95889.69;;;30.65;24.19
54816;BME280;40715;55.752;37.884;2023-10-08T11:38:46;95881.84;;;30.69;23.90
54816;BME280;40715;55.752;37.884;2023-10-08T11:41:17;95882.94;;;30.68;24.09
54816;BME280;40715;55.752;37.884;2023-10-08T11:43:52;95878.00;;;30.64;24.09
54816;BME280;40715;55.752;37.884;2023-10-08T11:46:28;95888.03;;;30.64;24.22
54816;BME280;40715;55.752;37.884;2023-10-08T11:49:05;95888.63;;;30.66;23.88
54816;BME280;40715;55.752;37.884;2023-10-08T11:51:34;95883.94;;;30.61;24.03
54816;BME280;40715;55.752;37.884;2023-10-08T11:54:02;95891.25;;;30.61;24.10
54816;BME280;40715;55.752;37.884;2023-10-08T11:56:29;95885.81;;;30.61;23.84
54816;BME280;40715;55.752;37.884;2023-10-08T11:58:56;95886.66;;;30.61;24.13
54816;BME280;40715;55.752;37.884;2023-10-08T12:01:24;95885.28;;;30.59;24.34
54816;BME280;40715;55.752;37.884;2023-10-08T12:03:51;95892.84;;;30.57;24.15
54816;BME280;40715;55.752;37.884;2023-10-08T12:06:18;95889.31;;;30.56;24.22
54816;BME280;40715;55.752;37.884;2023-10-08T12:08:47;95886.59;;;30.56;24.05
54816;BME280;40715;55.752;37.884;2023-10-08T12:11:14;95879.75;;;30.54;24.33
54816;BME280;40715;55.752;37.884;2023-10-08T12:13:42;95888.16;;;30.52;24.16
54816;BME280;40715;55.752;37.884;2023-10-08T12:16:13;95885.44;;;30.52;24.37
54816;BME280;40715;55.752;37.884;2023-10-08T12:18:45;95895.25;;;30.53;24.46
54816;BME280;40715;55.752;37.884;2023-10-08T12:21:15;95894.47;;;30.58;24.32
54816;BME280;40715;55.752;37.884;2023-10-08T12:23:44;95899.91;;;30.58;24.43
54816;BME280;40715;55.752;37.884;2023-10-08T12:26:13;95900.25;;;30.61;24.15
54816;BME280;40715;55.752;37.884;2023-10-08T12:28:46;95891.84;;;30.63;24.38
54816;BME280;40715;55.752;37.884;2023-10-08T12:31:16;95900.53;;;30.65;24.43
54816;BME280;40715;55.752;37.884;2023-10-08T12:33:43;95906.56;;;30.67;24.29
54816;BME280;40715;55.752;37.884;2023-10-08T12:36:11;95904.59;;;30.62;24.15
54816;BME280;40715;55.752;37.884;2023-10-08T12:38:40;95893.16;;;30.60;24.18
54816;BME280;40715;55.752;37.884;2023-10-08T12:41:11;95897.84;;;30.65;24.45
54816;BME280;40715;55.752;37.884;2023-10-08T12:43:40;95896.75;;;30.66;24.55
54816;BME280;40715;55.752;37.884;2023-10-08T12:46:22;95899.28;;;30.73;24.31
54816;BME280;40715;55.752;37.884;2023-10-08T12:48:53;95905.03;;;30.76;24.37
54816;BME280;40715;55.752;37.884;2023-10-08T12:51:24;95900.19;;;30.78;24.26
54816;BME280;40715;55.752;37.884;2023-10-08T12:53:53;95899.34;;;30.78;24.38
54816;BME280;40715;55.752;37.884;2023-10-08T12:56:30;95889.84;;;30.80;24.76
54816;BME280;40715;55.752;37.884;2023-10-08T12:59:12;95898.56;;;30.83;24.68
54816;BME280;40715;55.752;37.884;2023-10-08T13:01:47;95908.38;;;30.84;24.71
54816;BME280;40715;55.752;37.884;2023-10-08T13:04:18;95905.66;;;30.84;24.87
54816;BME280;40715;55.752;37.884;2023-10-08T13:06:55;95914.38;;;30.86;24.55
54816;BME280;40715;55.752;37.884;2023-10-08T13:09:28;95904.31;;;30.86;24.74
54816;BME280;40715;55.752;37.884;2023-10-08T13:11:58;95902.75;;;30.90;24.58
54816;BME280;40715;55.752;37.884;2023-10-08T13:14:26;95922.03;;;30.89;24.68
54816;BME280;40715;55.752;37.884;2023-10-08T13:16:53;95910.28;;;30.83;25.08
54816;BME280;40715;55.752;37.884;2023-10-08T13:19:20;95886.63;;;30.84;25.07
54816;BME280;40715;55.752;37.884;2023-10-08T13:21:50;95907.56;;;30.83;25.15
54816;BME280;40715;55.752;37.884;2023-10-08T13:24:20;95902.94;;;30.84;24.86
54816;BME280;40715;55.752;37.884;2023-10-08T13:26:50;95893.13;;;30.83;25.30